Lennoxville, Canada
Current Conditions -  °F | °C
As of 11:00 AM on Thursday 29 Jan 2015 (Local Time) from CYSC Reporting Station
Clear Clear  
Wind Chill: 10°   Ceiling: Unl
Heat Index: 10°   Visibility: 9mi
Dew Point:   Wind: 3mph
Humidity: 62%   Direction: 80°E
Pressure: 30.2"   Gusts: NA
Location:  45.37°N, 71.86°W
Report Text: CYSC 291600Z AUTO 08003KT 9SM CLR M12/M18 A3020 RMK PRESFR SLP249
Loading
Personal Weather Stations






























Interactive Weather Map New forecast layout! Learn more

10-Day Weather Forecast

Advertisements
Track Severe Weather on mobile